Time;durP1;ratioP1;P1;durP2;ratioP2;P2;SDS_P1;SDS_P2;PMS_P1;PMS_P2;Temp;Humidity;BMP_temperature;BMP_pressure;BME280_temperature;BME280_humidity;BME280_pressure;Samples;Min_cycle;Max_cycle;Signal;HPM_P1;HPM_P2
2022/01/12 00:01:40;;;;;;;88.68;36.60;;;4.10;99.90;;;;;;5015888;28;20137;-79
2022/01/12 00:04:07;;;;;;;101.30;39.55;;;4.20;99.90;;;;;;5034008;28;20056;-78
2022/01/12 00:06:33;;;;;;;101.65;37.15;;;4.10;99.90;;;;;;5034466;28;20120;-79
2022/01/12 00:09:05;;;;;;;104.72;36.95;;;4.20;99.90;;;;;;5000930;28;20128;-79
2022/01/12 00:11:30;;;;;;;100.07;36.42;;;4.20;99.90;;;;;;5014073;28;20038;-79
2022/01/12 00:13:56;;;;;;;92.55;36.50;;;4.20;99.90;;;;;;5021190;28;20102;-79
2022/01/12 00:16:21;;;;;;;99.78;37.50;;;4.20;99.90;;;;;;5016547;28;20041;-79
2022/01/12 00:18:48;;;;;;;110.95;38.47;;;4.20;99.90;;;;;;5014560;28;20045;-78
2022/01/12 00:21:14;;;;;;;107.35;38.88;;;4.20;99.90;;;;;;5019769;28;20041;-79
2022/01/12 00:23:41;;;;;;;131.10;41.03;;;4.20;99.90;;;;;;5010992;28;20127;-79
2022/01/12 00:26:12;;;;;;;123.60;40.10;;;4.20;99.90;;;;;;5021512;28;20098;-78
2022/01/12 00:34:10;;;;;;;130.50;39.15;;;4.20;99.90;;;;;;5018704;28;20044;-78
2022/01/12 00:36:36;;;;;;;114.65;38.78;;;4.20;99.90;;;;;;5032097;28;20033;-78
2022/01/12 00:39:05;;;;;;;147.13;39.78;;;4.30;99.90;;;;;;5039325;28;20043;-79
2022/01/12 00:41:31;;;;;;;118.53;38.10;;;4.30;99.90;;;;;;5019997;28;20044;-79
2022/01/12 00:44:00;;;;;;;137.32;39.30;;;4.30;99.90;;;;;;5022349;28;20044;-78
2022/01/12 00:46:28;;;;;;;151.00;41.08;;;4.30;99.90;;;;;;5007034;28;20171;-79
2022/01/12 00:48:55;;;;;;;155.07;40.03;;;4.30;99.90;;;;;;5020726;28;20037;-79
2022/01/12 00:51:22;;;;;;;146.20;41.58;;;4.30;99.90;;;;;;5039245;28;20112;-79
2022/01/12 00:53:47;;;;;;;136.27;39.88;;;4.40;99.90;;;;;;5026399;28;20040;-78
2022/01/12 00:56:13;;;;;;;161.32;41.80;;;4.30;99.90;;;;;;5023232;28;20029;-79
2022/01/12 00:58:39;;;;;;;146.48;40.13;;;4.30;99.90;;;;;;5018742;28;20682;-79
2022/01/12 01:01:05;;;;;;;147.93;40.13;;;4.30;99.90;;;;;;5012080;28;20041;-78
2022/01/12 01:03:31;;;;;;;173.05;39.20;;;4.30;99.90;;;;;;5017919;28;20084;-78
2022/01/12 01:05:59;;;;;;;168.18;41.75;;;4.30;99.90;;;;;;5026640;28;20040;-78
2022/01/12 01:08:24;;;;;;;166.80;40.03;;;4.30;99.90;;;;;;5024929;28;20128;-79
2022/01/12 01:10:52;;;;;;;188.25;43.03;;;4.30;99.90;;;;;;5024374;28;20052;-78
2022/01/12 01:13:26;;;;;;;207.32;43.90;;;4.30;99.90;;;;;;5023653;28;20098;-79
2022/01/12 01:26:39;;;;;;;167.23;39.47;;;4.40;99.90;;;;;;5016141;28;20046;-78
2022/01/12 01:29:05;;;;;;;189.95;39.67;;;4.40;99.90;;;;;;5045292;28;20388;-79
2022/01/12 01:31:33;;;;;;;340.58;53.75;;;4.40;99.90;;;;;;5022316;28;20048;-78
2022/01/12 01:34:07;;;;;;;256.90;44.28;;;4.40;99.90;;;;;;5021093;28;20033;-79
2022/01/12 01:36:45;;;;;;;243.48;41.13;;;4.40;99.90;;;;;;5000653;28;20315;-79
2022/01/12 01:39:14;;;;;;;378.98;56.10;;;4.40;99.90;;;;;;5019076;28;20377;-79
2022/01/12 01:41:42;;;;;;;235.57;43.47;;;4.40;99.90;;;;;;5040805;28;20422;-78
2022/01/12 01:55:00;;;;;;;237.15;41.13;;;4.50;99.90;;;;;;5023485;28;20280;-79
2022/01/12 01:57:26;;;;;;;259.52;44.55;;;4.50;99.90;;;;;;5040458;28;20036;-78
2022/01/12 01:59:52;;;;;;;224.88;43.78;;;4.50;99.90;;;;;;5026522;28;20839;-78
2022/01/12 02:02:18;;;;;;;327.17;49.42;;;4.60;99.90;;;;;;5022942;28;20444;-79
2022/01/12 02:04:43;;;;;;;453.33;55.83;;;4.60;99.90;;;;;;5024425;28;20500;-79
2022/01/12 02:07:09;;;;;;;290.90;44.92;;;4.50;99.90;;;;;;5023691;28;20056;-78
2022/01/12 02:09:35;;;;;;;290.35;41.92;;;4.50;99.90;;;;;;5006737;28;20091;-79
2022/01/12 02:12:01;;;;;;;487.58;58.00;;;4.60;99.90;;;;;;5023661;28;20044;-78
2022/01/12 02:14:28;;;;;;;394.02;48.58;;;4.60;99.90;;;;;;5044975;28;20044;-78
2022/01/12 02:17:04;;;;;;;278.45;42.58;;;4.60;99.90;;;;;;5040249;28;20057;-79
2022/01/12 02:41:03;;;;;;;351.55;47.17;;;4.60;99.90;;;;;;5041326;28;20059;-79
2022/01/12 02:53:52;;;;;;;230.35;45.60;;;4.60;99.90;;;;;;5021435;28;20075;-78
2022/01/12 02:56:20;;;;;;;270.75;48.13;;;4.60;99.90;;;;;;5021736;28;20437;-79
2022/01/12 02:58:48;;;;;;;272.30;46.13;;;4.60;99.90;;;;;;5035502;28;20044;-78
2022/01/12 03:01:52;;;;;;;260.48;45.55;;;4.70;99.90;;;;;;5043581;28;20052;-79
2022/01/12 03:04:15;;;;;;;227.45;43.25;;;4.60;99.90;;;;;;5021401;28;20466;-78
2022/01/12 03:06:43;;;;;;;255.18;43.92;;;4.70;99.90;;;;;;5034271;28;20111;-79
2022/01/12 03:09:10;;;;;;;279.15;45.30;;;4.70;99.90;;;;;;5023621;28;20421;-78
2022/01/12 03:11:38;;;;;;;226.63;46.05;;;4.60;99.90;;;;;;5020131;28;20032;-78
2022/01/12 03:14:04;;;;;;;189.73;42.25;;;4.70;99.90;;;;;;5019543;28;20051;-78
2022/01/12 03:16:30;;;;;;;211.45;43.72;;;4.60;99.90;;;;;;5020881;28;20033;-79
2022/01/12 03:18:58;;;;;;;183.20;40.58;;;4.60;99.90;;;;;;5021399;28;20044;-78
2022/01/12 03:21:27;;;;;;;228.15;45.85;;;4.60;99.90;;;;;;5019287;28;20780;-78
2022/01/12 03:23:53;;;;;;;261.92;48.20;;;4.60;99.90;;;;;;5023351;28;20041;-79
2022/01/12 03:26:20;;;;;;;221.25;43.83;;;4.50;99.90;;;;;;5019859;28;20042;-79
2022/01/12 03:28:53;;;;;;;163.98;39.63;;;4.40;99.90;;;;;;5001086;28;20029;-79
2022/01/12 03:31:23;;;;;;;182.90;39.88;;;4.40;99.90;;;;;;5020594;28;20523;-79
2022/01/12 03:36:41;;;;;;;270.00;44.70;;;4.30;99.90;;;;;;5035717;28;20049;-79
2022/01/12 03:39:13;;;;;;;367.23;49.78;;;4.20;99.90;;;;;;5021109;28;20415;-78
2022/01/12 03:41:41;;;;;;;363.20;44.67;;;4.20;99.90;;;;;;5014134;28;20279;-79
2022/01/12 03:44:09;;;;;;;507.48;50.65;;;4.10;99.90;;;;;;5014812;28;20072;-79
2022/01/12 03:46:37;;;;;;;633.25;57.22;;;4.00;99.90;;;;;;5003128;28;20037;-79
2022/01/12 03:49:06;;;;;;;624.03;57.05;;;4.00;99.90;;;;;;5018418;28;20044;-79
2022/01/12 03:51:32;;;;;;;685.58;54.95;;;4.00;99.90;;;;;;5019941;28;20068;-78
2022/01/12 03:53:58;;;;;;;627.28;48.92;;;4.00;99.90;;;;;;5013093;28;20036;-79
2022/01/12 03:56:24;;;;;;;704.80;51.47;;;3.90;99.90;;;;;;4994245;28;20045;-79
2022/01/12 03:58:49;;;;;;;627.30;47.03;;;3.90;99.90;;;;;;5017836;28;20052;-78
2022/01/12 04:01:15;;;;;;;580.08;45.30;;;3.80;99.90;;;;;;5024091;28;20465;-78
2022/01/12 04:03:45;;;;;;;516.10;39.80;;;3.80;99.90;;;;;;5003136;28;20045;-79
2022/01/12 04:08:55;;;;;;;524.75;42.03;;;3.70;99.90;;;;;;5013326;28;20045;-78
2022/01/12 04:11:20;;;;;;;522.53;42.78;;;3.70;99.90;;;;;;5011548;28;20107;-78
2022/01/12 04:13:48;;;;;;;639.53;46.95;;;3.80;99.90;;;;;;5015153;28;20124;-78
2022/01/12 04:16:15;;;;;;;535.08;42.75;;;3.70;99.90;;;;;;5010756;28;20126;-78
2022/01/12 04:18:41;;;;;;;564.58;44.95;;;3.70;99.90;;;;;;5013719;28;20037;-78
2022/01/12 04:21:09;;;;;;;582.60;48.22;;;3.70;99.90;;;;;;5013157;28;20047;-78
2022/01/12 04:23:37;;;;;;;437.05;34.58;;;3.70;99.90;;;;;;5013600;28;20042;-79
2022/01/12 04:26:13;;;;;;;495.17;39.15;;;3.70;99.90;;;;;;5018605;28;20025;-79
2022/01/12 04:28:42;;;;;;;463.67;38.03;;;3.70;99.90;;;;;;5028457;28;20060;-78
2022/01/12 04:31:09;;;;;;;392.75;35.85;;;3.70;99.90;;;;;;5012331;28;20634;-79
2022/01/12 04:33:37;;;;;;;395.60;36.67;;;3.60;99.90;;;;;;5014022;28;20186;-79
2022/01/12 04:36:03;;;;;;;352.20;32.95;;;3.70;99.90;;;;;;5012927;28;20039;-79
2022/01/12 04:38:33;;;;;;;352.83;32.13;;;3.60;99.90;;;;;;5012371;28;20029;-78
2022/01/12 04:41:00;;;;;;;389.42;37.03;;;3.60;99.90;;;;;;5015584;28;20540;-78
2022/01/12 04:43:26;;;;;;;296.88;32.75;;;3.60;99.90;;;;;;5012967;28;20507;-78
2022/01/12 04:50:51;;;;;;;290.05;31.40;;;3.50;99.90;;;;;;5018389;28;20064;-78
2022/01/12 04:53:18;;;;;;;259.67;29.42;;;3.50;99.90;;;;;;4999542;28;20087;-78
2022/01/12 04:55:46;;;;;;;272.92;28.58;;;3.50;99.90;;;;;;5011361;28;20048;-78
2022/01/12 04:58:14;;;;;;;249.32;28.80;;;3.50;99.90;;;;;;5034191;28;20083;-79
2022/01/12 05:00:40;;;;;;;282.10;32.20;;;3.50;99.90;;;;;;5013426;28;20048;-78
2022/01/12 05:13:54;;;;;;;175.15;23.75;;;3.20;99.90;;;;;;5030322;28;20042;-79
2022/01/12 05:16:22;;;;;;;165.05;24.73;;;3.10;99.90;;;;;;5012467;28;20143;-79
2022/01/12 05:18:49;;;;;;;117.00;21.67;;;3.10;99.90;;;;;;5012199;28;20357;-78
2022/01/12 05:21:17;;;;;;;116.53;21.27;;;3.00;99.90;;;;;;5014929;28;20049;-79
2022/01/12 05:23:43;;;;;;;200.90;23.88;;;2.90;99.90;;;;;;5016895;28;20073;-79
2022/01/12 05:26:09;;;;;;;166.57;23.70;;;2.90;99.90;;;;;;5012958;28;20061;-79
2022/01/12 05:28:38;;;;;;;163.50;24.27;;;2.80;99.90;;;;;;5031299;28;20051;-78
2022/01/12 05:31:04;;;;;;;110.68;21.00;;;2.70;99.90;;;;;;5001139;28;20043;-78
2022/01/12 05:33:30;;;;;;;112.10;19.73;;;2.70;99.90;;;;;;5036524;28;20040;-78
2022/01/12 05:35:57;;;;;;;139.40;20.90;;;2.60;99.90;;;;;;5019225;28;20048;-78
2022/01/12 05:38:24;;;;;;;365.45;35.30;;;2.60;99.90;;;;;;5017837;28;20060;-79
2022/01/12 05:40:55;;;;;;;89.35;21.05;;;2.50;99.90;;;;;;5014671;28;20045;-78
2022/01/12 05:43:25;;;;;;;86.07;20.73;;;2.50;99.90;;;;;;5022590;28;20049;-79
2022/01/12 05:45:53;;;;;;;240.70;30.08;;;2.50;99.90;;;;;;5014198;28;20045;-78
2022/01/12 05:50:48;;;;;;;145.93;22.75;;;2.50;99.90;;;;;;5037981;28;20071;-78
2022/01/12 05:53:14;;;;;;;94.05;19.02;;;2.40;99.90;;;;;;5011774;28;20045;-78
2022/01/12 05:55:40;;;;;;;111.63;20.70;;;2.40;99.90;;;;;;5014547;28;20157;-78
2022/01/12 05:58:06;;;;;;;122.50;18.17;;;2.30;99.90;;;;;;5013424;28;20041;-78
2022/01/12 06:00:32;;;;;;;127.70;22.15;;;2.40;99.90;;;;;;5016265;28;20106;-79
2022/01/12 06:02:58;;;;;;;159.70;24.10;;;2.30;99.90;;;;;;5001070;28;20044;-78
2022/01/12 06:05:24;;;;;;;142.15;20.02;;;2.20;99.90;;;;;;5040342;28;20041;-79
2022/01/12 06:07:51;;;;;;;133.95;19.38;;;2.20;99.90;;;;;;5017393;28;20148;-79
2022/01/12 06:10:20;;;;;;;157.30;23.08;;;2.20;99.90;;;;;;5014379;28;20045;-79
2022/01/12 06:12:46;;;;;;;141.32;21.98;;;2.20;99.90;;;;;;5039343;28;20047;-78
2022/01/12 06:15:15;;;;;;;73.40;16.20;;;2.20;99.90;;;;;;5019523;28;20044;-78
2022/01/12 06:17:41;;;;;;;125.13;20.58;;;2.10;99.90;;;;;;5012718;28;20048;-78
2022/01/12 06:20:08;;;;;;;101.28;17.63;;;2.00;99.90;;;;;;5018024;28;20052;-78
2022/01/12 06:22:35;;;;;;;116.75;19.55;;;1.90;99.90;;;;;;4997714;28;20496;-78
2022/01/12 06:25:02;;;;;;;110.05;22.75;;;1.90;99.90;;;;;;5036007;28;20049;-78
2022/01/12 06:27:33;;;;;;;67.05;18.10;;;1.80;99.90;;;;;;5016165;28;20048;-78
2022/01/12 06:31:10;;;;;;;42.10;16.90;;;1.90;99.90;;;;;;5021614;28;20045;-78
2022/01/12 06:32:47;;;;;;;230.98;27.83;;;2.00;99.90;;;;;;5018633;28;20051;-78
2022/01/12 06:35:12;;;;;;;74.90;17.15;;;1.90;99.90;;;;;;5016256;28;20044;-78
2022/01/12 06:37:38;;;;;;;79.28;17.10;;;2.00;99.90;;;;;;5011622;28;20069;-78
2022/01/12 06:40:04;;;;;;;97.90;17.33;;;2.10;99.90;;;;;;5012105;28;20057;-78
2022/01/12 06:42:30;;;;;;;113.30;18.10;;;2.00;99.90;;;;;;5011955;28;20547;-78
2022/01/12 06:44:56;;;;;;;112.40;18.30;;;2.00;99.90;;;;;;5020651;28;20609;-78
2022/01/12 06:47:21;;;;;;;119.80;18.52;;;2.00;99.90;;;;;;5018393;28;20037;-78
2022/01/12 06:49:47;;;;;;;123.53;18.38;;;2.00;99.90;;;;;;4995072;28;20475;-78
2022/01/12 06:52:12;;;;;;;111.07;19.00;;;2.00;99.90;;;;;;5019690;28;20285;-79
2022/01/12 06:54:39;;;;;;;110.35;18.92;;;1.90;99.90;;;;;;5013934;28;20582;-78
2022/01/12 06:57:04;;;;;;;102.70;18.40;;;2.00;99.90;;;;;;5013889;28;20045;-78
2022/01/12 06:59:30;;;;;;;142.85;17.88;;;2.00;99.90;;;;;;5000955;28;20037;-79
2022/01/12 07:01:57;;;;;;;151.25;20.85;;;1.90;99.90;;;;;;5015395;28;20033;-78
2022/01/12 07:04:24;;;;;;;155.07;20.92;;;1.90;99.90;;;;;;5016449;28;20369;-78
2022/01/12 07:06:50;;;;;;;136.32;19.55;;;1.90;99.90;;;;;;5013420;28;20045;-78
2022/01/12 07:09:16;;;;;;;135.52;21.35;;;2.00;99.90;;;;;;4995037;28;20045;-78
2022/01/12 07:11:42;;;;;;;107.20;18.95;;;2.00;99.90;;;;;;5014371;28;20041;-78
2022/01/12 07:14:08;;;;;;;120.50;20.08;;;2.00;99.90;;;;;;5006887;28;20196;-78
2022/01/12 07:16:34;;;;;;;119.93;19.20;;;1.90;99.90;;;;;;4999382;28;20139;-79
2022/01/12 07:18:59;;;;;;;150.70;22.90;;;2.00;99.90;;;;;;5017000;28;20543;-78
2022/01/12 07:21:26;;;;;;;210.02;22.20;;;2.00;99.90;;;;;;5019723;28;20453;-78
2022/01/12 07:23:54;;;;;;;202.63;23.00;;;2.10;99.90;;;;;;5039519;28;20095;-78
2022/01/12 07:26:21;;;;;;;190.70;20.60;;;2.10;99.90;;;;;;5001901;28;20041;-78
2022/01/12 07:28:48;;;;;;;185.05;20.65;;;2.10;99.90;;;;;;5012886;28;20037;-78
2022/01/12 07:31:13;;;;;;;149.40;21.13;;;2.10;99.90;;;;;;5009647;28;20050;-79
2022/01/12 07:33:39;;;;;;;197.63;22.30;;;2.20;99.90;;;;;;5014455;28;20032;-79
2022/01/12 07:36:05;;;;;;;207.07;21.55;;;2.10;99.90;;;;;;5011229;28;20061;-79
2022/01/12 07:38:30;;;;;;;209.68;21.95;;;2.20;99.90;;;;;;5017368;28;20049;-78
2022/01/12 07:40:56;;;;;;;165.27;20.48;;;2.30;99.90;;;;;;5018823;28;20440;-78
2022/01/12 07:43:22;;;;;;;195.93;21.55;;;2.20;99.90;;;;;;4997193;28;20125;-78
2022/01/12 07:45:48;;;;;;;193.77;22.00;;;2.30;99.90;;;;;;5016207;28;20047;-78
2022/01/12 07:48:13;;;;;;;235.95;23.13;;;2.40;99.90;;;;;;5006616;28;20128;-78
2022/01/12 07:50:40;;;;;;;209.88;22.92;;;2.40;99.90;;;;;;5019771;28;20537;-78
2022/01/12 07:53:06;;;;;;;268.80;24.83;;;2.40;99.90;;;;;;4991176;28;20045;-78
2022/01/12 07:55:32;;;;;;;206.32;21.05;;;2.40;99.90;;;;;;5034194;28;20049;-78
2022/01/12 07:57:58;;;;;;;247.35;24.27;;;2.40;99.90;;;;;;5036237;28;20158;-79
2022/01/12 08:00:24;;;;;;;234.05;22.88;;;2.50;99.90;;;;;;5012165;28;20471;-78
2022/01/12 08:02:50;;;;;;;231.93;21.80;;;2.50;99.90;;;;;;5021854;28;20120;-78
2022/01/12 08:05:17;;;;;;;261.85;22.27;;;2.50;99.90;;;;;;5038578;28;20463;-78
2022/01/12 08:07:44;;;;;;;315.27;28.70;;;2.60;99.90;;;;;;5024762;28;20048;-78
2022/01/12 08:10:10;;;;;;;331.17;29.77;;;2.70;99.90;;;;;;5000714;28;20053;-78
2022/01/12 08:12:37;;;;;;;271.58;26.77;;;2.70;99.90;;;;;;5017166;28;20565;-78
2022/01/12 08:15:05;;;;;;;212.80;25.08;;;2.80;99.90;;;;;;5015488;28;20565;-78
2022/01/12 08:17:31;;;;;;;179.73;22.08;;;2.80;99.90;;;;;;5035871;28;20049;-78
2022/01/12 08:19:58;;;;;;;201.15;20.80;;;2.90;99.90;;;;;;5011669;28;20340;-78
2022/01/12 08:22:24;;;;;;;219.75;20.67;;;3.00;99.90;;;;;;5006108;28;20040;-78
2022/01/12 08:24:50;;;;;;;185.82;20.48;;;3.00;99.90;;;;;;5017142;28;20460;-78
2022/01/12 08:27:15;;;;;;;231.98;25.05;;;3.00;99.90;;;;;;5007243;28;20044;-79
2022/01/12 08:29:41;;;;;;;259.67;23.33;;;3.00;99.90;;;;;;5039324;28;20045;-78
2022/01/12 08:32:07;;;;;;;214.85;22.98;;;3.10;99.90;;;;;;4995969;28;20037;-78
2022/01/12 08:34:32;;;;;;;243.13;22.52;;;3.10;99.90;;;;;;5012773;28;20103;-78
2022/01/12 08:36:58;;;;;;;236.18;22.08;;;3.20;99.90;;;;;;5037031;28;20068;-78
2022/01/12 08:39:24;;;;;;;268.98;21.58;;;3.30;99.90;;;;;;5013108;28;20159;-78
2022/01/12 08:41:50;;;;;;;206.63;19.40;;;3.40;99.90;;;;;;5014665;28;20176;-79
2022/01/12 08:44:19;;;;;;;162.38;18.63;;;3.40;99.90;;;;;;5014095;28;20150;-78
2022/01/12 08:46:45;;;;;;;172.80;18.95;;;3.50;99.90;;;;;;5027871;28;20041;-79
2022/01/12 08:49:10;;;;;;;149.07;15.80;;;3.60;99.90;;;;;;5026983;28;20366;-79
2022/01/12 08:51:37;;;;;;;172.57;17.88;;;3.60;99.90;;;;;;5003166;28;20048;-79
2022/01/12 08:54:04;;;;;;;128.38;16.80;;;3.60;99.90;;;;;;5010612;28;20037;-79
2022/01/12 08:56:29;;;;;;;121.60;15.18;;;3.70;99.90;;;;;;5012652;28;20403;-78
2022/01/12 08:58:58;;;;;;;144.20;16.70;;;3.80;99.90;;;;;;4995911;28;20057;-79
2022/01/12 09:01:24;;;;;;;126.28;16.20;;;3.90;99.90;;;;;;5036163;28;20122;-79
2022/01/12 09:03:50;;;;;;;149.80;16.42;;;4.00;99.90;;;;;;5034100;28;20060;-78
2022/01/12 09:06:16;;;;;;;115.82;14.35;;;4.00;99.90;;;;;;5026065;28;20065;-79
2022/01/12 09:08:44;;;;;;;135.93;16.90;;;4.10;99.90;;;;;;5018643;28;20049;-79
2022/01/12 09:11:10;;;;;;;170.05;18.27;;;4.10;99.90;;;;;;5020713;28;20049;-79
2022/01/12 09:13:40;;;;;;;123.70;17.58;;;4.10;99.90;;;;;;5025140;28;20063;-79
2022/01/12 09:16:06;;;;;;;125.85;17.75;;;4.20;99.90;;;;;;5025112;28;20057;-78
2022/01/12 09:18:37;;;;;;;134.18;20.10;;;4.20;99.90;;;;;;5002587;28;20049;-79
2022/01/12 09:21:04;;;;;;;131.05;19.70;;;4.20;99.90;;;;;;5020640;28;20504;-78
2022/01/12 09:23:30;;;;;;;188.82;21.35;;;4.30;99.90;;;;;;5021583;28;20049;-78
2022/01/12 09:25:55;;;;;;;175.25;18.83;;;4.30;99.90;;;;;;5007781;28;20043;-79
2022/01/12 09:28:21;;;;;;;113.45;13.98;;;4.20;99.90;;;;;;5021459;28;20045;-78
2022/01/12 09:30:47;;;;;;;80.10;11.80;;;4.20;99.90;;;;;;5025302;28;20056;-78
2022/01/12 09:33:13;;;;;;;88.45;12.00;;;4.20;99.90;;;;;;5003745;28;20045;-79
2022/01/12 09:35:38;;;;;;;103.85;11.73;;;4.30;99.90;;;;;;5026662;28;20079;-79
2022/01/12 09:38:04;;;;;;;82.05;12.82;;;4.30;99.90;;;;;;5009130;28;20041;-79
2022/01/12 09:40:30;;;;;;;92.53;13.27;;;4.40;99.90;;;;;;5010496;28;20059;-79
2022/01/12 09:43:03;;;;;;;63.13;12.10;;;4.50;99.90;;;;;;5018786;28;20049;-78
2022/01/12 09:45:31;;;;;;;63.75;11.10;;;4.50;99.90;;;;;;5020308;28;20045;-78
2022/01/12 09:47:56;;;;;;;111.47;13.20;;;4.50;99.90;;;;;;5018562;28;20403;-79
2022/01/12 09:50:23;;;;;;;88.40;11.45;;;4.60;99.90;;;;;;5023132;28;20056;-78
2022/01/12 09:52:50;;;;;;;89.78;11.20;;;4.80;99.90;;;;;;5019267;28;20129;-79
2022/01/12 09:55:17;;;;;;;97.68;12.95;;;4.80;99.90;;;;;;5018539;28;20040;-79
2022/01/12 09:57:43;;;;;;;80.28;10.73;;;4.80;99.90;;;;;;5011562;28;20080;-79
2022/01/12 10:00:09;;;;;;;89.95;12.70;;;4.80;99.90;;;;;;5013094;28;20124;-79
2022/01/12 10:02:35;;;;;;;81.25;13.00;;;4.90;99.90;;;;;;5020812;28;20047;-78
2022/01/12 10:05:07;;;;;;;85.72;14.23;;;4.90;99.90;;;;;;5017181;28;20037;-79
2022/01/12 10:07:33;;;;;;;84.53;12.10;;;4.90;99.90;;;;;;5006483;28;20128;-78
2022/01/12 10:10:04;;;;;;;101.82;11.32;;;4.90;99.90;;;;;;5014803;28;20037;-79
2022/01/12 10:12:30;;;;;;;105.70;11.90;;;5.00;99.90;;;;;;5037888;28;20369;-79
2022/01/12 10:15:02;;;;;;;82.00;11.63;;;5.00;99.90;;;;;;5018063;28;20048;-78
2022/01/12 10:17:42;;;;;;;105.35;10.48;;;5.00;99.90;;;;;;5021358;28;20550;-79
2022/01/12 10:20:12;;;;;;;73.10;10.77;;;5.00;99.90;;;;;;5002310;28;20472;-79
2022/01/12 10:22:42;;;;;;;117.28;12.57;;;5.20;99.90;;;;;;5036893;28;20669;-78
2022/01/12 10:25:17;;;;;;;135.00;13.65;;;5.20;99.90;;;;;;5033781;28;20460;-79
2022/01/12 10:27:43;;;;;;;148.57;15.15;;;5.20;99.90;;;;;;5034261;28;20041;-78
2022/01/12 10:30:22;;;;;;;108.18;12.10;;;5.30;99.90;;;;;;5016780;28;20212;-79
2022/01/12 10:33:09;;;;;;;141.18;13.73;;;5.30;99.90;;;;;;5034520;28;20179;-79
2022/01/12 10:35:39;;;;;;;100.40;11.90;;;5.40;99.90;;;;;;5020095;28;20151;-78
2022/01/12 10:38:14;;;;;;;99.43;12.82;;;5.50;99.90;;;;;;5004220;28;20484;-79
2022/01/12 10:40:50;;;;;;;;;;;5.60;99.90;;;;;;5018986;28;20053;-79
2022/01/12 10:43:35;;;;;;;;;;;5.60;99.90;;;;;;5016908;28;20340;-78
2022/01/12 10:46:10;;;;;;;102.13;11.15;;;5.60;99.90;;;;;;5038695;28;20296;-79
2022/01/12 10:48:52;;;;;;;88.47;12.32;;;5.70;99.90;;;;;;5016797;28;20044;-79
2022/01/12 10:51:22;;;;;;;122.60;11.98;;;5.80;99.90;;;;;;5023242;28;20107;-79
2022/01/12 10:53:49;;;;;;;58.92;10.10;;;5.70;99.90;;;;;;5031138;28;20039;-79
2022/01/12 10:56:21;;;;;;;100.70;11.88;;;5.80;99.90;;;;;;5020592;28;20393;-79
2022/01/12 10:58:48;;;;;;;92.82;11.45;;;5.80;99.90;;;;;;5025531;28;20116;-79
2022/01/12 11:01:17;;;;;;;108.05;12.02;;;5.80;99.90;;;;;;5012217;28;20175;-79
2022/01/12 11:03:44;;;;;;;93.38;12.10;;;5.80;99.90;;;;;;5040287;28;20029;-79
2022/01/12 11:06:10;;;;;;;122.43;12.65;;;5.90;99.90;;;;;;4992483;28;20045;-79
2022/01/12 11:08:38;;;;;;;63.67;10.68;;;5.90;99.90;;;;;;5039888;28;20451;-79
2022/01/12 11:11:04;;;;;;;84.53;11.75;;;6.10;99.90;;;;;;5030028;28;20321;-79
2022/01/12 11:13:31;;;;;;;77.88;10.77;;;6.00;99.90;;;;;;5024435;28;20112;-79
2022/01/12 11:15:57;;;;;;;93.15;10.07;;;6.00;99.90;;;;;;5017687;28;20080;-79
2022/01/12 11:18:30;;;;;;;82.07;10.10;;;6.20;99.90;;;;;;5016448;28;20092;-79
2022/01/12 11:21:03;;;;;;;74.45;9.30;;;6.00;99.90;;;;;;5040561;28;20123;-79
2022/01/12 11:23:35;;;;;;;60.08;9.98;;;6.00;99.90;;;;;;5007473;28;20049;-79
2022/01/12 11:26:15;;;;;;;62.33;9.15;;;6.00;99.90;;;;;;5010825;28;20059;-79
2022/01/12 11:28:41;;;;;;;64.07;10.25;;;6.10;99.90;;;;;;5022051;28;20045;-79
2022/01/12 11:31:08;;;;;;;47.00;8.93;;;6.10;99.90;;;;;;5035656;28;20489;-79
2022/01/12 11:33:35;;;;;;;58.88;9.45;;;6.10;99.90;;;;;;5020483;28;20052;-79
2022/01/12 11:36:12;;;;;;;74.05;11.73;;;6.20;99.90;;;;;;5017957;28;20033;-79
2022/01/12 11:38:38;;;;;;;45.25;10.55;;;6.20;99.90;;;;;;5024116;28;20041;-79
2022/01/12 11:41:26;;;;;;;44.60;10.57;;;6.30;99.90;;;;;;5022373;28;20566;-79
2022/01/12 11:43:54;;;;;;;32.90;8.88;;;6.30;99.90;;;;;;5010667;28;20043;-79
2022/01/12 11:46:26;;;;;;;35.53;9.90;;;6.50;99.90;;;;;;5010605;28;20068;-79
2022/01/12 11:48:53;;;;;;;36.00;9.38;;;6.50;99.90;;;;;;5016536;28;20280;-79
2022/01/12 11:51:38;;;;;;;37.92;9.38;;;6.50;99.90;;;;;;5032453;28;20044;-79
2022/01/12 11:54:29;;;;;;;31.58;9.48;;;6.60;99.90;;;;;;5023506;28;20116;-79
2022/01/12 11:57:06;;;;;;;25.75;9.00;;;6.70;99.90;;;;;;5020824;28;20122;-79
2022/01/12 11:59:51;;;;;;;30.73;9.73;;;6.80;99.90;;;;;;5015358;28;20037;-79
2022/01/12 12:02:19;;;;;;;24.50;8.48;;;6.80;99.90;;;;;;5017321;28;20045;-79
2022/01/12 12:04:54;;;;;;;32.58;8.27;;;6.80;99.90;;;;;;5016440;28;20049;-79
2022/01/12 12:07:20;;;;;;;;;;;6.70;99.90;;;;;;5018532;28;20057;-79
2022/01/12 12:09:52;;;;;;;29.95;7.38;;;6.60;99.90;;;;;;5016409;28;19943;-79
2022/01/12 12:12:30;;;;;;;25.85;8.20;;;6.80;99.90;;;;;;5032548;28;20087;-79
2022/01/12 12:15:02;;;;;;;27.90;8.10;;;6.60;99.90;;;;;;5015976;28;20546;-79
2022/01/12 12:17:31;;;;;;;25.23;8.20;;;6.50;99.90;;;;;;5002807;28;20393;-79
2022/01/12 12:19:57;;;;;;;36.10;9.10;;;6.70;99.90;;;;;;5019776;28;20052;-79
2022/01/12 12:22:30;;;;;;;22.85;7.95;;;6.50;99.90;;;;;;5017620;28;20107;-79
2022/01/12 12:25:02;;;;;;;21.83;8.35;;;6.70;99.90;;;;;;4998142;28;20037;-79
2022/01/12 12:27:29;;;;;;;25.45;9.23;;;6.70;99.90;;;;;;5008793;28;20037;-79
2022/01/12 12:29:55;;;;;;;27.60;9.23;;;6.50;99.90;;;;;;5018488;28;20499;-79
2022/01/12 12:32:55;;;;;;;19.95;8.70;;;6.40;99.90;;;;;;5013351;28;20075;-79
2022/01/12 12:35:30;;;;;;;24.63;9.70;;;6.40;99.90;;;;;;5010361;28;20045;-79
2022/01/12 12:38:02;;;;;;;28.85;9.52;;;6.50;99.90;;;;;;5016786;28;20051;-78
2022/01/12 12:40:48;;;;;;;33.97;10.00;;;6.50;99.90;;;;;;5017929;28;20151;-79
2022/01/12 12:43:21;;;;;;;30.40;11.40;;;6.50;99.90;;;;;;5013636;28;20096;-79
2022/01/12 12:45:57;;;;;;;31.83;10.95;;;6.60;99.90;;;;;;5016590;28;20500;-79
2022/01/12 12:48:28;;;;;;;26.48;10.45;;;6.60;99.90;;;;;;5010640;28;20071;-79
2022/01/12 12:51:07;;;;;;;29.35;11.63;;;6.40;99.90;;;;;;5015329;28;20072;-79
2022/01/12 12:53:38;;;;;;;37.30;11.93;;;6.40;99.90;;;;;;5017270;28;20481;-79
2022/01/12 12:56:07;;;;;;;44.33;13.45;;;6.40;99.90;;;;;;5031789;28;20056;-79
2022/01/12 12:58:33;;;;;;;56.10;13.82;;;6.40;99.90;;;;;;5021755;28;20404;-79
2022/01/12 13:01:10;;;;;;;49.83;13.07;;;6.40;99.90;;;;;;5006170;28;20053;-79
2022/01/12 13:03:37;;;;;;;63.55;12.95;;;6.40;99.90;;;;;;5022536;28;20477;-79
2022/01/12 13:06:03;;;;;;;46.85;11.82;;;6.30;99.90;;;;;;5036850;28;20037;-79
2022/01/12 13:08:29;;;;;;;42.60;11.57;;;6.20;99.90;;;;;;5038243;28;20036;-79
2022/01/12 13:10:55;;;;;;;41.88;11.60;;;6.20;99.90;;;;;;5037170;28;20102;-79
2022/01/12 13:13:21;;;;;;;33.75;11.38;;;6.20;99.90;;;;;;5015410;28;20041;-79
2022/01/12 13:15:47;;;;;;;41.95;11.85;;;6.20;99.90;;;;;;5023160;28;20110;-79
2022/01/12 13:18:23;;;;;;;37.75;12.00;;;6.20;99.90;;;;;;4992931;28;20045;-79
2022/01/12 13:21:07;;;;;;;35.97;11.70;;;6.30;99.90;;;;;;5020144;28;20051;-79
2022/01/12 13:23:46;;;;;;;33.70;12.98;;;6.30;99.90;;;;;;5037670;28;20392;-79
2022/01/12 13:26:15;;;;;;;30.80;12.13;;;6.40;99.90;;;;;;4992771;28;21138;-79
2022/01/12 13:28:43;;;;;;;35.65;11.57;;;6.40;99.90;;;;;;5010097;28;20049;-79
2022/01/12 13:31:12;;;;;;;31.35;11.38;;;6.30;99.90;;;;;;5015708;28;20067;-79
2022/01/12 13:33:40;;;;;;;29.65;11.38;;;6.20;99.90;;;;;;5017631;28;20159;-79
2022/01/12 13:36:14;;;;;;;32.83;10.35;;;6.10;99.90;;;;;;5005537;28;20053;-79
2022/01/12 13:38:46;;;;;;;35.47;12.57;;;6.20;99.90;;;;;;5006229;28;20157;-79
2022/01/12 13:41:15;;;;;;;27.05;10.98;;;6.30;99.90;;;;;;5010725;28;20061;-79
2022/01/12 13:43:44;;;;;;;32.33;11.35;;;6.30;99.90;;;;;;5029884;28;20041;-79
2022/01/12 13:46:15;;;;;;;38.35;11.82;;;6.20;99.90;;;;;;5015615;28;20099;-79
2022/01/12 13:51:38;;;;;;;38.88;10.27;;;6.20;99.90;;;;;;5035694;28;20132;-78
2022/01/12 13:54:10;;;;;;;40.90;11.02;;;6.10;99.90;;;;;;5024391;28;20047;-79
2022/01/12 13:56:41;;;;;;;42.45;11.70;;;5.90;99.90;;;;;;5034732;28;20067;-79
2022/01/12 13:59:08;;;;;;;31.65;10.45;;;5.90;99.90;;;;;;5046144;28;20439;-78
2022/01/12 14:01:36;;;;;;;34.33;10.50;;;5.80;99.90;;;;;;5015976;28;20055;-78
2022/01/12 14:06:39;;;;;;;29.17;10.57;;;5.80;99.90;;;;;;5022460;28;20641;-79
2022/01/12 14:09:33;;;;;;;22.85;10.65;;;5.80;99.90;;;;;;5021874;28;20039;-79